Terminal Aerodrome Forecast
Issued by NWS

Home | Current Version | Previous Version | Text Only | Print | Product List | Glossary Off
Versions: 1 2 3 4 5 6 7 8 9 10 11 12 13 14 15 16 17 18 19 20 21 22 23 24 25 26 27 28 29 30 31 32 33 34 35 36 37 38 39 40

000
FTUS43 KPAH 020520
TAFOWB
TAF
KOWB 020520Z 0206/0306 19004KT 6SM -SHRA BR VCTS SCT030CB BKN070
      TEMPO 0206/0208 VRB15G25KT 3SM TSRA BKN025CB
     FM020800 VRB04KT 6SM -SHRA BR SCT035 BKN070
     FM021000 VRB03KT 4SM SHRA BR VCTS SCT015CB BKN025
     FM021400 18005KT 6SM BR VCSH SCT015 BKN035
     FM021700 21010G17KT P6SM BKN025
     FM030000 27005KT P6SM BKN030=

USA.gov is the U.S. government's official web portal to all federal, state and local government web resources and services.